sensor_id;sensor_type;location;lat;lon;timestamp;P1;durP1;ratioP1;P2;durP2;ratioP2
47529;SDS011;33272;51.922;7.730;2022-10-16T00:01:12;7.87;;;5.37;;
47529;SDS011;33272;51.922;7.730;2022-10-16T00:03:43;8.63;;;5.23;;
47529;SDS011;33272;51.922;7.730;2022-10-16T00:06:11;8.50;;;5.43;;
47529;SDS011;33272;51.922;7.730;2022-10-16T00:08:42;6.70;;;5.40;;
47529;SDS011;33272;51.922;7.730;2022-10-16T00:11:10;6.30;;;5.23;;
47529;SDS011;33272;51.922;7.730;2022-10-16T00:13:41;8.07;;;5.47;;
47529;SDS011;33272;51.922;7.730;2022-10-16T00:16:11;8.60;;;5.40;;
47529;SDS011;33272;51.922;7.730;2022-10-16T00:18:39;9.17;;;5.83;;
47529;SDS011;33272;51.922;7.730;2022-10-16T00:21:07;7.13;;;5.33;;
47529;SDS011;33272;51.922;7.730;2022-10-16T00:23:39;8.20;;;5.53;;
47529;SDS011;33272;51.922;7.730;2022-10-16T00:26:08;9.30;;;5.63;;
47529;SDS011;33272;51.922;7.730;2022-10-16T00:28:39;8.00;;;5.40;;
47529;SDS011;33272;51.922;7.730;2022-10-16T00:31:07;8.70;;;5.40;;
47529;SDS011;33272;51.922;7.730;2022-10-16T00:33:36;6.43;;;5.30;;
47529;SDS011;33272;51.922;7.730;2022-10-16T00:36:06;6.57;;;5.53;;
47529;SDS011;33272;51.922;7.730;2022-10-16T00:38:37;10.70;;;6.03;;
47529;SDS011;33272;51.922;7.730;2022-10-16T00:41:06;7.47;;;5.90;;
47529;SDS011;33272;51.922;7.730;2022-10-16T00:43:39;7.87;;;5.77;;
47529;SDS011;33272;51.922;7.730;2022-10-16T00:46:13;6.30;;;5.67;;
47529;SDS011;33272;51.922;7.730;2022-10-16T00:48:45;8.13;;;5.73;;
47529;SDS011;33272;51.922;7.730;2022-10-16T00:51:18;9.57;;;6.10;;
47529;SDS011;33272;51.922;7.730;2022-10-16T00:53:51;9.67;;;6.23;;
47529;SDS011;33272;51.922;7.730;2022-10-16T00:56:18;7.77;;;5.90;;
47529;SDS011;33272;51.922;7.730;2022-10-16T00:58:46;8.33;;;6.07;;
47529;SDS011;33272;51.922;7.730;2022-10-16T01:01:13;8.43;;;6.50;;
47529;SDS011;33272;51.922;7.730;2022-10-16T01:03:40;8.43;;;5.83;;
47529;SDS011;33272;51.922;7.730;2022-10-16T01:06:14;10.43;;;6.27;;
47529;SDS011;33272;51.922;7.730;2022-10-16T01:09:03;8.03;;;5.90;;
47529;SDS011;33272;51.922;7.730;2022-10-16T01:11:41;9.67;;;6.30;;
47529;SDS011;33272;51.922;7.730;2022-10-16T01:14:21;7.80;;;5.83;;
47529;SDS011;33272;51.922;7.730;2022-10-16T01:17:06;9.90;;;6.17;;
47529;SDS011;33272;51.922;7.730;2022-10-16T01:19:46;9.50;;;6.00;;
47529;SDS011;33272;51.922;7.730;2022-10-16T01:22:30;9.40;;;6.20;;
47529;SDS011;33272;51.922;7.730;2022-10-16T01:25:09;9.77;;;6.40;;
47529;SDS011;33272;51.922;7.730;2022-10-16T01:27:46;9.97;;;5.70;;
47529;SDS011;33272;51.922;7.730;2022-10-16T01:30:15;9.43;;;7.03;;
47529;SDS011;33272;51.922;7.730;2022-10-16T01:32:49;7.67;;;6.40;;
47529;SDS011;33272;51.922;7.730;2022-10-16T01:35:22;12.03;;;7.03;;
47529;SDS011;33272;51.922;7.730;2022-10-16T01:37:54;11.27;;;6.07;;
47529;SDS011;33272;51.922;7.730;2022-10-16T01:40:28;9.73;;;6.50;;
47529;SDS011;33272;51.922;7.730;2022-10-16T01:43:00;9.07;;;5.90;;
47529;SDS011;33272;51.922;7.730;2022-10-16T01:45:31;10.53;;;6.60;;
47529;SDS011;33272;51.922;7.730;2022-10-16T01:47:59;8.37;;;5.77;;
47529;SDS011;33272;51.922;7.730;2022-10-16T01:50:29;7.77;;;5.87;;
47529;SDS011;33272;51.922;7.730;2022-10-16T01:52:57;11.30;;;6.20;;
47529;SDS011;33272;51.922;7.730;2022-10-16T01:55:27;7.17;;;6.23;;
47529;SDS011;33272;51.922;7.730;2022-10-16T01:57:59;8.07;;;5.63;;
47529;SDS011;33272;51.922;7.730;2022-10-16T02:00:31;8.07;;;6.27;;
47529;SDS011;33272;51.922;7.730;2022-10-16T02:02:58;7.53;;;5.63;;
47529;SDS011;33272;51.922;7.730;2022-10-16T02:05:29;7.60;;;5.80;;
47529;SDS011;33272;51.922;7.730;2022-10-16T02:08:01;8.27;;;6.10;;
47529;SDS011;33272;51.922;7.730;2022-10-16T02:10:29;9.60;;;5.73;;
47529;SDS011;33272;51.922;7.730;2022-10-16T02:12:57;8.93;;;5.87;;
47529;SDS011;33272;51.922;7.730;2022-10-16T02:15:32;9.10;;;6.30;;
47529;SDS011;33272;51.922;7.730;2022-10-16T02:17:59;7.03;;;6.27;;
47529;SDS011;33272;51.922;7.730;2022-10-16T02:20:28;10.70;;;5.90;;
47529;SDS011;33272;51.922;7.730;2022-10-16T02:23:06;9.60;;;6.17;;
47529;SDS011;33272;51.922;7.730;2022-10-16T02:25:39;6.90;;;5.47;;
47529;SDS011;33272;51.922;7.730;2022-10-16T02:28:12;6.53;;;5.53;;
47529;SDS011;33272;51.922;7.730;2022-10-16T02:30:44;6.53;;;5.30;;
47529;SDS011;33272;51.922;7.730;2022-10-16T02:33:17;7.00;;;5.73;;
47529;SDS011;33272;51.922;7.730;2022-10-16T02:35:47;6.37;;;5.27;;
47529;SDS011;33272;51.922;7.730;2022-10-16T02:38:17;6.80;;;5.03;;
47529;SDS011;33272;51.922;7.730;2022-10-16T02:40:46;6.47;;;5.50;;
47529;SDS011;33272;51.922;7.730;2022-10-16T02:43:14;6.33;;;5.13;;
47529;SDS011;33272;51.922;7.730;2022-10-16T02:45:42;7.60;;;5.13;;
47529;SDS011;33272;51.922;7.730;2022-10-16T02:48:10;7.93;;;5.33;;
47529;SDS011;33272;51.922;7.730;2022-10-16T02:50:37;6.73;;;4.90;;
47529;SDS011;33272;51.922;7.730;2022-10-16T02:53:04;6.27;;;5.07;;
47529;SDS011;33272;51.922;7.730;2022-10-16T02:55:31;5.57;;;4.97;;
47529;SDS011;33272;51.922;7.730;2022-10-16T02:57:57;9.23;;;5.27;;
47529;SDS011;33272;51.922;7.730;2022-10-16T03:00:26;6.47;;;5.10;;
47529;SDS011;33272;51.922;7.730;2022-10-16T03:02:53;5.70;;;4.97;;
47529;SDS011;33272;51.922;7.730;2022-10-16T03:05:20;7.03;;;4.70;;
47529;SDS011;33272;51.922;7.730;2022-10-16T03:07:47;9.07;;;4.97;;
47529;SDS011;33272;51.922;7.730;2022-10-16T03:10:14;6.87;;;4.83;;
47529;SDS011;33272;51.922;7.730;2022-10-16T03:12:41;7.43;;;4.60;;
47529;SDS011;33272;51.922;7.730;2022-10-16T03:15:08;6.27;;;4.50;;
47529;SDS011;33272;51.922;7.730;2022-10-16T03:17:37;5.80;;;4.53;;
47529;SDS011;33272;51.922;7.730;2022-10-16T03:20:04;5.07;;;4.23;;
47529;SDS011;33272;51.922;7.730;2022-10-16T03:22:32;5.63;;;4.07;;
47529;SDS011;33272;51.922;7.730;2022-10-16T03:24:59;4.93;;;4.13;;
47529;SDS011;33272;51.922;7.730;2022-10-16T03:27:26;5.23;;;4.27;;
47529;SDS011;33272;51.922;7.730;2022-10-16T03:29:53;7.33;;;4.13;;
47529;SDS011;33272;51.922;7.730;2022-10-16T03:32:20;6.80;;;3.90;;
47529;SDS011;33272;51.922;7.730;2022-10-16T03:34:51;8.10;;;4.27;;
47529;SDS011;33272;51.922;7.730;2022-10-16T03:37:19;5.77;;;3.80;;
47529;SDS011;33272;51.922;7.730;2022-10-16T03:39:46;4.93;;;4.07;;
47529;SDS011;33272;51.922;7.730;2022-10-16T03:42:13;5.97;;;4.13;;
47529;SDS011;33272;51.922;7.730;2022-10-16T03:44:40;5.33;;;3.80;;
47529;SDS011;33272;51.922;7.730;2022-10-16T03:47:07;3.90;;;3.30;;
47529;SDS011;33272;51.922;7.730;2022-10-16T03:49:34;4.90;;;3.70;;
47529;SDS011;33272;51.922;7.730;2022-10-16T03:52:02;4.47;;;3.23;;
47529;SDS011;33272;51.922;7.730;2022-10-16T03:54:29;4.77;;;3.37;;
47529;SDS011;33272;51.922;7.730;2022-10-16T03:56:56;4.83;;;2.93;;
47529;SDS011;33272;51.922;7.730;2022-10-16T03:59:23;5.60;;;3.53;;
47529;SDS011;33272;51.922;7.730;2022-10-16T04:01:50;5.97;;;3.30;;
47529;SDS011;33272;51.922;7.730;2022-10-16T04:04:17;3.37;;;3.07;;
47529;SDS011;33272;51.922;7.730;2022-10-16T04:06:44;3.67;;;3.10;;
47529;SDS011;33272;51.922;7.730;2022-10-16T04:09:13;4.13;;;3.27;;
47529;SDS011;33272;51.922;7.730;2022-10-16T04:11:40;5.27;;;3.13;;
47529;SDS011;33272;51.922;7.730;2022-10-16T04:14:07;4.23;;;3.10;;
47529;SDS011;33272;51.922;7.730;2022-10-16T04:16:34;5.07;;;2.93;;
47529;SDS011;33272;51.922;7.730;2022-10-16T04:19:01;6.20;;;3.20;;
47529;SDS011;33272;51.922;7.730;2022-10-16T04:21:28;3.60;;;3.10;;
47529;SDS011;33272;51.922;7.730;2022-10-16T04:23:55;5.57;;;2.97;;
47529;SDS011;33272;51.922;7.730;2022-10-16T04:26:23;4.70;;;2.90;;
47529;SDS011;33272;51.922;7.730;2022-10-16T04:28:50;3.13;;;2.80;;
47529;SDS011;33272;51.922;7.730;2022-10-16T04:31:17;4.33;;;2.93;;
47529;SDS011;33272;51.922;7.730;2022-10-16T04:33:44;4.23;;;2.70;;
47529;SDS011;33272;51.922;7.730;2022-10-16T04:36:11;3.03;;;2.60;;
47529;SDS011;33272;51.922;7.730;2022-10-16T04:38:39;3.10;;;2.80;;
47529;SDS011;33272;51.922;7.730;2022-10-16T04:41:06;3.37;;;3.03;;
47529;SDS011;33272;51.922;7.730;2022-10-16T04:43:35;3.87;;;2.53;;
47529;SDS011;33272;51.922;7.730;2022-10-16T04:46:02;4.00;;;2.70;;
47529;SDS011;33272;51.922;7.730;2022-10-16T04:48:30;4.93;;;2.50;;
47529;SDS011;33272;51.922;7.730;2022-10-16T04:50:57;4.20;;;2.47;;
47529;SDS011;33272;51.922;7.730;2022-10-16T04:53:25;3.33;;;2.93;;
47529;SDS011;33272;51.922;7.730;2022-10-16T04:55:52;3.10;;;2.80;;
47529;SDS011;33272;51.922;7.730;2022-10-16T04:58:19;4.07;;;2.77;;
47529;SDS011;33272;51.922;7.730;2022-10-16T05:00:47;2.97;;;2.37;;
47529;SDS011;33272;51.922;7.730;2022-10-16T05:03:14;3.27;;;2.93;;
47529;SDS011;33272;51.922;7.730;2022-10-16T05:05:42;3.60;;;2.70;;
47529;SDS011;33272;51.922;7.730;2022-10-16T05:08:10;4.40;;;2.40;;
47529;SDS011;33272;51.922;7.730;2022-10-16T05:10:37;3.37;;;2.67;;
47529;SDS011;33272;51.922;7.730;2022-10-16T05:13:04;4.53;;;2.63;;
47529;SDS011;33272;51.922;7.730;2022-10-16T05:15:31;3.20;;;2.43;;
47529;SDS011;33272;51.922;7.730;2022-10-16T05:17:59;3.60;;;2.60;;
47529;SDS011;33272;51.922;7.730;2022-10-16T05:20:26;2.30;;;2.03;;
47529;SDS011;33272;51.922;7.730;2022-10-16T05:22:53;3.63;;;2.37;;
47529;SDS011;33272;51.922;7.730;2022-10-16T05:25:20;5.17;;;2.30;;
47529;SDS011;33272;51.922;7.730;2022-10-16T05:27:47;3.33;;;2.30;;
47529;SDS011;33272;51.922;7.730;2022-10-16T05:30:15;2.60;;;2.20;;
47529;SDS011;33272;51.922;7.730;2022-10-16T05:32:45;3.47;;;2.33;;
47529;SDS011;33272;51.922;7.730;2022-10-16T05:35:15;2.87;;;2.50;;
47529;SDS011;33272;51.922;7.730;2022-10-16T05:37:44;3.00;;;2.30;;
47529;SDS011;33272;51.922;7.730;2022-10-16T05:40:11;2.63;;;2.40;;
47529;SDS011;33272;51.922;7.730;2022-10-16T05:42:39;3.40;;;2.40;;
47529;SDS011;33272;51.922;7.730;2022-10-16T05:45:07;3.90;;;2.50;;
47529;SDS011;33272;51.922;7.730;2022-10-16T05:47:36;2.50;;;2.30;;
47529;SDS011;33272;51.922;7.730;2022-10-16T05:50:03;3.63;;;2.73;;
47529;SDS011;33272;51.922;7.730;2022-10-16T05:52:32;3.03;;;2.33;;
47529;SDS011;33272;51.922;7.730;2022-10-16T05:54:59;4.07;;;2.33;;
47529;SDS011;33272;51.922;7.730;2022-10-16T05:57:26;3.23;;;2.73;;
47529;SDS011;33272;51.922;7.730;2022-10-16T05:59:53;2.73;;;2.50;;
47529;SDS011;33272;51.922;7.730;2022-10-16T06:02:20;3.50;;;2.40;;
47529;SDS011;33272;51.922;7.730;2022-10-16T06:04:48;5.70;;;2.53;;
47529;SDS011;33272;51.922;7.730;2022-10-16T06:07:15;3.40;;;2.47;;
47529;SDS011;33272;51.922;7.730;2022-10-16T06:09:43;2.10;;;1.90;;
47529;SDS011;33272;51.922;7.730;2022-10-16T06:12:10;4.93;;;2.13;;
47529;SDS011;33272;51.922;7.730;2022-10-16T06:14:37;2.67;;;2.20;;
47529;SDS011;33272;51.922;7.730;2022-10-16T06:17:04;2.77;;;2.20;;
47529;SDS011;33272;51.922;7.730;2022-10-16T06:19:31;2.60;;;2.00;;
47529;SDS011;33272;51.922;7.730;2022-10-16T06:21:58;2.40;;;2.00;;
47529;SDS011;33272;51.922;7.730;2022-10-16T06:24:25;1.77;;;1.67;;
47529;SDS011;33272;51.922;7.730;2022-10-16T06:26:53;4.00;;;1.87;;
47529;SDS011;33272;51.922;7.730;2022-10-16T06:29:20;2.40;;;2.20;;
47529;SDS011;33272;51.922;7.730;2022-10-16T06:31:47;3.57;;;1.90;;
47529;SDS011;33272;51.922;7.730;2022-10-16T06:34:14;3.27;;;2.03;;
47529;SDS011;33272;51.922;7.730;2022-10-16T06:36:41;2.17;;;1.97;;
47529;SDS011;33272;51.922;7.730;2022-10-16T06:39:09;3.93;;;2.37;;
47529;SDS011;33272;51.922;7.730;2022-10-16T06:41:36;2.73;;;2.27;;
47529;SDS011;33272;51.922;7.730;2022-10-16T06:44:06;3.90;;;2.43;;
47529;SDS011;33272;51.922;7.730;2022-10-16T06:46:33;2.70;;;1.93;;
47529;SDS011;33272;51.922;7.730;2022-10-16T06:49:00;2.73;;;2.00;;
47529;SDS011;33272;51.922;7.730;2022-10-16T06:51:27;2.23;;;1.83;;
47529;SDS011;33272;51.922;7.730;2022-10-16T06:53:56;2.83;;;2.27;;
47529;SDS011;33272;51.922;7.730;2022-10-16T06:56:23;1.90;;;1.70;;
47529;SDS011;33272;51.922;7.730;2022-10-16T06:58:53;2.60;;;2.20;;
47529;SDS011;33272;51.922;7.730;2022-10-16T07:01:22;3.23;;;2.10;;
47529;SDS011;33272;51.922;7.730;2022-10-16T07:03:50;2.97;;;2.00;;
47529;SDS011;33272;51.922;7.730;2022-10-16T07:06:19;5.07;;;2.10;;
47529;SDS011;33272;51.922;7.730;2022-10-16T07:08:48;4.63;;;2.10;;
47529;SDS011;33272;51.922;7.730;2022-10-16T07:11:17;4.13;;;2.10;;
47529;SDS011;33272;51.922;7.730;2022-10-16T07:13:46;2.67;;;1.93;;
47529;SDS011;33272;51.922;7.730;2022-10-16T07:16:15;2.60;;;2.10;;
47529;SDS011;33272;51.922;7.730;2022-10-16T07:18:45;4.03;;;2.03;;
47529;SDS011;33272;51.922;7.730;2022-10-16T07:21:14;3.37;;;2.07;;
47529;SDS011;33272;51.922;7.730;2022-10-16T07:23:44;2.27;;;1.90;;
47529;SDS011;33272;51.922;7.730;2022-10-16T07:26:11;2.43;;;1.80;;
47529;SDS011;33272;51.922;7.730;2022-10-16T07:28:38;2.87;;;1.90;;
47529;SDS011;33272;51.922;7.730;2022-10-16T07:31:06;3.10;;;1.90;;
47529;SDS011;33272;51.922;7.730;2022-10-16T07:33:37;2.10;;;1.70;;
47529;SDS011;33272;51.922;7.730;2022-10-16T07:36:06;3.57;;;2.17;;
47529;SDS011;33272;51.922;7.730;2022-10-16T07:38:34;2.97;;;2.00;;
47529;SDS011;33272;51.922;7.730;2022-10-16T07:41:01;2.00;;;1.80;;
47529;SDS011;33272;51.922;7.730;2022-10-16T07:43:31;4.53;;;2.17;;
47529;SDS011;33272;51.922;7.730;2022-10-16T07:45:59;4.37;;;1.77;;
47529;SDS011;33272;51.922;7.730;2022-10-16T07:48:27;2.13;;;1.70;;
47529;SDS011;33272;51.922;7.730;2022-10-16T07:50:56;2.63;;;1.93;;
47529;SDS011;33272;51.922;7.730;2022-10-16T07:53:26;3.00;;;1.63;;
47529;SDS011;33272;51.922;7.730;2022-10-16T07:55:57;2.30;;;1.80;;
47529;SDS011;33272;51.922;7.730;2022-10-16T07:58:25;3.00;;;1.60;;
47529;SDS011;33272;51.922;7.730;2022-10-16T08:00:52;2.07;;;1.50;;
47529;SDS011;33272;51.922;7.730;2022-10-16T08:03:19;1.77;;;1.67;;
47529;SDS011;33272;51.922;7.730;2022-10-16T08:05:46;4.20;;;1.60;;
47529;SDS011;33272;51.922;7.730;2022-10-16T08:08:14;2.90;;;1.60;;
47529;SDS011;33272;51.922;7.730;2022-10-16T08:10:44;1.50;;;1.40;;
47529;SDS011;33272;51.922;7.730;2022-10-16T08:13:11;2.33;;;1.47;;
47529;SDS011;33272;51.922;7.730;2022-10-16T08:15:39;2.63;;;1.30;;
47529;SDS011;33272;51.922;7.730;2022-10-16T08:18:07;3.27;;;2.03;;
47529;SDS011;33272;51.922;7.730;2022-10-16T08:20:35;2.70;;;1.50;;
47529;SDS011;33272;51.922;7.730;2022-10-16T08:23:02;1.87;;;1.50;;
47529;SDS011;33272;51.922;7.730;2022-10-16T08:25:29;2.87;;;1.80;;
47529;SDS011;33272;51.922;7.730;2022-10-16T08:27:58;2.13;;;1.70;;
47529;SDS011;33272;51.922;7.730;2022-10-16T08:30:25;3.67;;;1.90;;
47529;SDS011;33272;51.922;7.730;2022-10-16T08:32:52;2.53;;;1.60;;
47529;SDS011;33272;51.922;7.730;2022-10-16T08:35:19;2.50;;;1.80;;
47529;SDS011;33272;51.922;7.730;2022-10-16T08:37:46;2.23;;;1.60;;
47529;SDS011;33272;51.922;7.730;2022-10-16T08:40:16;4.30;;;2.30;;
47529;SDS011;33272;51.922;7.730;2022-10-16T08:42:49;3.27;;;1.90;;
47529;SDS011;33272;51.922;7.730;2022-10-16T08:45:47;3.23;;;2.00;;
47529;SDS011;33272;51.922;7.730;2022-10-16T08:48:43;3.57;;;1.90;;
47529;SDS011;33272;51.922;7.730;2022-10-16T08:51:15;2.03;;;1.87;;
47529;SDS011;33272;51.922;7.730;2022-10-16T08:53:49;3.13;;;2.00;;
47529;SDS011;33272;51.922;7.730;2022-10-16T08:56:20;2.53;;;1.80;;
47529;SDS011;33272;51.922;7.730;2022-10-16T08:58:50;2.00;;;1.80;;
47529;SDS011;33272;51.922;7.730;2022-10-16T09:01:19;2.40;;;1.60;;
47529;SDS011;33272;51.922;7.730;2022-10-16T09:03:53;4.27;;;1.90;;
47529;SDS011;33272;51.922;7.730;2022-10-16T09:07:06;2.13;;;1.40;;
47529;SDS011;33272;51.922;7.730;2022-10-16T09:09:46;2.47;;;1.57;;
47529;SDS011;33272;51.922;7.730;2022-10-16T09:12:27;3.23;;;1.60;;
47529;SDS011;33272;51.922;7.730;2022-10-16T09:15:07;4.17;;;1.77;;
47529;SDS011;33272;51.922;7.730;2022-10-16T09:17:49;3.07;;;1.47;;
47529;SDS011;33272;51.922;7.730;2022-10-16T09:20:27;1.97;;;1.70;;
47529;SDS011;33272;51.922;7.730;2022-10-16T09:23:12;2.13;;;1.67;;
47529;SDS011;33272;51.922;7.730;2022-10-16T09:25:43;2.37;;;1.47;;
47529;SDS011;33272;51.922;7.730;2022-10-16T09:28:13;2.33;;;1.37;;
47529;SDS011;33272;51.922;7.730;2022-10-16T09:30:43;1.90;;;1.43;;
47529;SDS011;33272;51.922;7.730;2022-10-16T09:33:12;4.17;;;1.80;;
47529;SDS011;33272;51.922;7.730;2022-10-16T09:35:40;2.33;;;1.43;;
47529;SDS011;33272;51.922;7.730;2022-10-16T09:38:20;2.07;;;1.50;;
47529;SDS011;33272;51.922;7.730;2022-10-16T09:40:49;2.87;;;1.63;;
47529;SDS011;33272;51.922;7.730;2022-10-16T09:43:20;2.87;;;1.37;;
47529;SDS011;33272;51.922;7.730;2022-10-16T09:45:57;3.50;;;1.50;;
47529;SDS011;33272;51.922;7.730;2022-10-16T09:48:27;3.70;;;1.40;;
47529;SDS011;33272;51.922;7.730;2022-10-16T09:51:01;5.27;;;1.70;;
47529;SDS011;33272;51.922;7.730;2022-10-16T09:53:38;2.30;;;1.57;;
47529;SDS011;33272;51.922;7.730;2022-10-16T09:56:09;4.03;;;1.80;;
47529;SDS011;33272;51.922;7.730;2022-10-16T09:58:49;3.07;;;1.40;;
47529;SDS011;33272;51.922;7.730;2022-10-16T10:01:18;5.37;;;1.40;;
47529;SDS011;33272;51.922;7.730;2022-10-16T10:03:49;1.27;;;1.17;;
47529;SDS011;33272;51.922;7.730;2022-10-16T10:06:18;5.77;;;1.50;;
47529;SDS011;33272;51.922;7.730;2022-10-16T10:08:54;2.67;;;1.30;;
47529;SDS011;33272;51.922;7.730;2022-10-16T10:11:44;1.60;;;1.43;;
47529;SDS011;33272;51.922;7.730;2022-10-16T10:14:17;2.43;;;1.17;;
47529;SDS011;33272;51.922;7.730;2022-10-16T10:16:50;4.23;;;1.90;;
47529;SDS011;33272;51.922;7.730;2022-10-16T10:19:19;3.83;;;1.73;;
47529;SDS011;33272;51.922;7.730;2022-10-16T10:21:49;6.50;;;1.90;;
47529;SDS011;33272;51.922;7.730;2022-10-16T10:24:18;4.93;;;2.20;;
47529;SDS011;33272;51.922;7.730;2022-10-16T10:26:48;4.13;;;2.30;;
47529;SDS011;33272;51.922;7.730;2022-10-16T10:29:28;4.83;;;2.80;;
47529;SDS011;33272;51.922;7.730;2022-10-16T10:32:16;4.30;;;2.00;;
47529;SDS011;33272;51.922;7.730;2022-10-16T10:35:03;2.80;;;1.90;;
47529;SDS011;33272;51.922;7.730;2022-10-16T10:37:51;3.43;;;1.77;;
47529;SDS011;33272;51.922;7.730;2022-10-16T10:40:34;6.63;;;1.73;;
47529;SDS011;33272;51.922;7.730;2022-10-16T10:43:19;3.23;;;1.40;;
47529;SDS011;33272;51.922;7.730;2022-10-16T10:46:02;2.67;;;1.30;;
47529;SDS011;33272;51.922;7.730;2022-10-16T10:48:41;4.90;;;1.40;;
47529;SDS011;33272;51.922;7.730;2022-10-16T10:51:28;2.80;;;1.60;;
47529;SDS011;33272;51.922;7.730;2022-10-16T10:54:09;4.17;;;1.30;;
47529;SDS011;33272;51.922;7.730;2022-10-16T10:56:49;3.43;;;1.60;;
47529;SDS011;33272;51.922;7.730;2022-10-16T10:59:30;1.97;;;1.10;;
47529;SDS011;33272;51.922;7.730;2022-10-16T11:02:15;3.57;;;1.73;;
47529;SDS011;33272;51.922;7.730;2022-10-16T11:04:53;4.73;;;1.40;;
47529;SDS011;33272;51.922;7.730;2022-10-16T11:08:02;3.93;;;1.40;;
47529;SDS011;33272;51.922;7.730;2022-10-16T11:10:42;3.00;;;1.00;;
47529;SDS011;33272;51.922;7.730;2022-10-16T11:13:19;2.07;;;0.90;;
47529;SDS011;33272;51.922;7.730;2022-10-16T11:15:59;4.97;;;1.40;;
47529;SDS011;33272;51.922;7.730;2022-10-16T11:18:30;2.53;;;1.00;;
47529;SDS011;33272;51.922;7.730;2022-10-16T11:21:10;2.60;;;0.90;;
47529;SDS011;33272;51.922;7.730;2022-10-16T11:23:43;2.03;;;0.87;;
47529;SDS011;33272;51.922;7.730;2022-10-16T11:26:17;2.33;;;1.33;;
47529;SDS011;33272;51.922;7.730;2022-10-16T11:28:50;2.40;;;1.30;;
47529;SDS011;33272;51.922;7.730;2022-10-16T11:31:22;2.37;;;1.10;;
47529;SDS011;33272;51.922;7.730;2022-10-16T11:33:59;3.07;;;1.40;;
47529;SDS011;33272;51.922;7.730;2022-10-16T11:36:35;1.53;;;0.90;;
47529;SDS011;33272;51.922;7.730;2022-10-16T11:39:11;2.10;;;1.07;;
47529;SDS011;33272;51.922;7.730;2022-10-16T11:41:48;2.80;;;1.30;;
47529;SDS011;33272;51.922;7.730;2022-10-16T11:44:30;1.80;;;0.90;;
47529;SDS011;33272;51.922;7.730;2022-10-16T11:47:19;1.17;;;0.80;;
47529;SDS011;33272;51.922;7.730;2022-10-16T11:49:56;3.17;;;1.37;;
47529;SDS011;33272;51.922;7.730;2022-10-16T11:52:30;1.20;;;1.10;;
47529;SDS011;33272;51.922;7.730;2022-10-16T11:55:06;2.37;;;1.10;;
47529;SDS011;33272;51.922;7.730;2022-10-16T11:57:43;1.47;;;0.80;;
47529;SDS011;33272;51.922;7.730;2022-10-16T12:00:19;2.27;;;1.17;;
47529;SDS011;33272;51.922;7.730;2022-10-16T12:02:55;3.07;;;0.93;;
47529;SDS011;33272;51.922;7.730;2022-10-16T12:05:33;2.30;;;1.00;;
47529;SDS011;33272;51.922;7.730;2022-10-16T12:08:17;2.60;;;1.10;;
47529;SDS011;33272;51.922;7.730;2022-10-16T12:10:45;1.73;;;0.93;;
47529;SDS011;33272;51.922;7.730;2022-10-16T12:13:32;2.60;;;0.90;;
47529;SDS011;33272;51.922;7.730;2022-10-16T12:16:21;1.90;;;0.90;;
47529;SDS011;33272;51.922;7.730;2022-10-16T12:18:50;1.87;;;0.97;;
47529;SDS011;33272;51.922;7.730;2022-10-16T12:21:37;2.83;;;1.30;;
47529;SDS011;33272;51.922;7.730;2022-10-16T12:24:06;2.90;;;0.87;;
47529;SDS011;33272;51.922;7.730;2022-10-16T12:26:45;3.33;;;1.00;;
47529;SDS011;33272;51.922;7.730;2022-10-16T12:29:19;2.23;;;0.93;;
47529;SDS011;33272;51.922;7.730;2022-10-16T12:31:56;2.87;;;1.00;;
47529;SDS011;33272;51.922;7.730;2022-10-16T12:34:23;2.70;;;1.00;;
47529;SDS011;33272;51.922;7.730;2022-10-16T12:36:55;2.70;;;1.13;;
47529;SDS011;33272;51.922;7.730;2022-10-16T12:39:34;2.30;;;0.70;;
47529;SDS011;33272;51.922;7.730;2022-10-16T12:42:04;2.70;;;1.20;;
47529;SDS011;33272;51.922;7.730;2022-10-16T12:44:45;2.73;;;1.10;;
47529;SDS011;33272;51.922;7.730;2022-10-16T12:47:19;1.07;;;0.80;;
47529;SDS011;33272;51.922;7.730;2022-10-16T12:49:49;1.63;;;0.97;;
47529;SDS011;33272;51.922;7.730;2022-10-16T12:52:29;0.97;;;0.70;;
47529;SDS011;33272;51.922;7.730;2022-10-16T12:55:09;1.37;;;1.00;;
47529;SDS011;33272;51.922;7.730;2022-10-16T12:57:44;3.37;;;1.20;;
47529;SDS011;33272;51.922;7.730;2022-10-16T13:00:32;0.90;;;0.80;;
47529;SDS011;33272;51.922;7.730;2022-10-16T13:07:00;2.20;;;1.00;;
47529;SDS011;33272;51.922;7.730;2022-10-16T13:09:50;1.93;;;0.97;;
47529;SDS011;33272;51.922;7.730;2022-10-16T13:12:37;2.67;;;1.17;;
47529;SDS011;33272;51.922;7.730;2022-10-16T13:15:25;2.00;;;0.80;;
47529;SDS011;33272;51.922;7.730;2022-10-16T13:18:06;3.37;;;0.80;;
47529;SDS011;33272;51.922;7.730;2022-10-16T13:20:47;1.70;;;1.30;;
47529;SDS011;33272;51.922;7.730;2022-10-16T13:23:30;2.20;;;1.07;;
47529;SDS011;33272;51.922;7.730;2022-10-16T13:26:08;0.80;;;0.80;;
47529;SDS011;33272;51.922;7.730;2022-10-16T13:28:47;1.70;;;0.83;;
47529;SDS011;33272;51.922;7.730;2022-10-16T13:31:17;1.77;;;0.90;;
47529;SDS011;33272;51.922;7.730;2022-10-16T13:33:48;5.23;;;1.23;;
47529;SDS011;33272;51.922;7.730;2022-10-16T13:36:20;1.90;;;1.07;;
47529;SDS011;33272;51.922;7.730;2022-10-16T13:38:50;1.50;;;0.90;;
47529;SDS011;33272;51.922;7.730;2022-10-16T13:41:32;2.13;;;1.03;;
47529;SDS011;33272;51.922;7.730;2022-10-16T13:44:01;2.17;;;1.00;;
47529;SDS011;33272;51.922;7.730;2022-10-16T13:46:28;2.40;;;1.20;;
47529;SDS011;33272;51.922;7.730;2022-10-16T13:48:59;4.20;;;1.10;;
47529;SDS011;33272;51.922;7.730;2022-10-16T13:51:29;2.37;;;1.20;;
47529;SDS011;33272;51.922;7.730;2022-10-16T13:53:57;1.80;;;1.00;;
47529;SDS011;33272;51.922;7.730;2022-10-16T13:56:26;1.23;;;0.80;;
47529;SDS011;33272;51.922;7.730;2022-10-16T13:58:58;4.23;;;1.33;;
47529;SDS011;33272;51.922;7.730;2022-10-16T14:01:30;1.37;;;1.07;;
47529;SDS011;33272;51.922;7.730;2022-10-16T14:04:01;3.13;;;1.13;;
47529;SDS011;33272;51.922;7.730;2022-10-16T14:06:30;3.30;;;1.20;;
47529;SDS011;33272;51.922;7.730;2022-10-16T14:08:59;2.10;;;1.17;;
47529;SDS011;33272;51.922;7.730;2022-10-16T14:11:33;1.40;;;1.10;;
47529;SDS011;33272;51.922;7.730;2022-10-16T14:14:10;1.93;;;1.07;;
47529;SDS011;33272;51.922;7.730;2022-10-16T14:16:38;2.47;;;1.30;;
47529;SDS011;33272;51.922;7.730;2022-10-16T14:19:14;1.57;;;1.00;;
47529;SDS011;33272;51.922;7.730;2022-10-16T14:21:47;2.40;;;1.00;;
47529;SDS011;33272;51.922;7.730;2022-10-16T14:24:22;2.83;;;1.27;;
47529;SDS011;33272;51.922;7.730;2022-10-16T14:26:53;2.17;;;1.07;;
47529;SDS011;33272;51.922;7.730;2022-10-16T14:29:23;2.83;;;1.27;;
47529;SDS011;33272;51.922;7.730;2022-10-16T14:31:55;1.80;;;1.27;;
47529;SDS011;33272;51.922;7.730;2022-10-16T14:34:24;2.80;;;1.23;;
47529;SDS011;33272;51.922;7.730;2022-10-16T14:36:53;2.97;;;1.00;;
47529;SDS011;33272;51.922;7.730;2022-10-16T14:39:21;2.27;;;1.10;;
47529;SDS011;33272;51.922;7.730;2022-10-16T14:41:54;2.10;;;1.10;;
47529;SDS011;33272;51.922;7.730;2022-10-16T14:44:26;1.80;;;1.20;;
47529;SDS011;33272;51.922;7.730;2022-10-16T14:46:58;4.23;;;1.67;;
47529;SDS011;33272;51.922;7.730;2022-10-16T14:49:33;2.50;;;1.20;;
47529;SDS011;33272;51.922;7.730;2022-10-16T14:52:00;2.03;;;1.53;;
47529;SDS011;33272;51.922;7.730;2022-10-16T14:54:31;2.00;;;1.10;;
47529;SDS011;33272;51.922;7.730;2022-10-16T14:56:58;1.37;;;1.20;;
47529;SDS011;33272;51.922;7.730;2022-10-16T14:59:27;2.90;;;1.20;;
47529;SDS011;33272;51.922;7.730;2022-10-16T15:01:59;4.00;;;1.30;;
47529;SDS011;33272;51.922;7.730;2022-10-16T15:04:26;2.27;;;1.47;;
47529;SDS011;33272;51.922;7.730;2022-10-16T15:06:53;3.60;;;1.10;;
47529;SDS011;33272;51.922;7.730;2022-10-16T15:09:20;2.13;;;1.13;;
47529;SDS011;33272;51.922;7.730;2022-10-16T15:11:47;1.93;;;1.20;;
47529;SDS011;33272;51.922;7.730;2022-10-16T15:14:14;6.43;;;1.67;;
47529;SDS011;33272;51.922;7.730;2022-10-16T15:16:42;3.07;;;1.40;;
47529;SDS011;33272;51.922;7.730;2022-10-16T15:19:10;3.13;;;1.37;;